Time;durP1;ratioP1;P1;durP2;ratioP2;P2;SDS_P1;SDS_P2;PMS_P1;PMS_P2;Temp;Humidity;BMP_temperature;BMP_pressure;BME280_temperature;BME280_humidity;BME280_pressure;Samples;Min_cycle;Max_cycle;Signal;HPM_P1;HPM_P2
2023/06/06 00:00:20;;;;;;;6.07;4.40;;;17.50;94.60;;;;;;2091824;28;20020;-73
2023/06/06 00:01:21;;;;;;;4.75;3.50;;;17.50;95.70;;;;;;2096698;28;20081;-73
2023/06/06 00:02:22;;;;;;;4.38;3.83;;;17.50;95.80;;;;;;2095731;28;20087;-72
2023/06/06 00:03:23;;;;;;;5.22;4.05;;;17.50;96.40;;;;;;2096323;28;20109;-73
2023/06/06 00:04:23;;;;;;;6.50;3.90;;;17.50;96.40;;;;;;2092783;28;20024;-73
2023/06/06 00:05:27;;;;;;;4.35;3.35;;;17.50;96.70;;;;;;2091151;28;20056;-73
2023/06/06 00:06:32;;;;;;;3.95;3.33;;;17.40;95.80;;;;;;2091880;28;20012;-73
2023/06/06 00:07:34;;;;;;;4.45;4.00;;;17.40;95.80;;;;;;2091547;28;20129;-73
2023/06/06 00:08:35;;;;;;;5.03;3.70;;;17.40;96.40;;;;;;2090917;28;20878;-73
2023/06/06 00:09:35;;;;;;;4.18;3.78;;;17.40;97.30;;;;;;2090989;28;20419;-72
2023/06/06 00:10:36;;;;;;;4.45;3.90;;;17.40;97.50;;;;;;2088697;28;20099;-73
2023/06/06 00:11:39;;;;;;;4.55;4.15;;;17.30;98.10;;;;;;2088683;28;20017;-73
2023/06/06 00:12:46;;;;;;;5.25;4.15;;;17.30;97.90;;;;;;2093370;28;20028;-73
2023/06/06 00:13:50;;;;;;;4.78;3.88;;;17.30;97.90;;;;;;2092718;28;20647;-73
2023/06/06 00:14:51;;;;;;;6.35;4.30;;;17.30;98.60;;;;;;2092040;28;20170;-72
2023/06/06 00:15:53;;;;;;;4.97;3.90;;;17.30;98.60;;;;;;2092198;28;20029;-73
2023/06/06 00:16:55;;;;;;;4.57;3.42;;;17.30;99.30;;;;;;2090809;28;20017;-73
2023/06/06 00:17:56;;;;;;;6.07;3.80;;;17.20;98.40;;;;;;2093224;28;20024;-73
2023/06/06 00:18:56;;;;;;;6.65;4.22;;;17.20;98.40;;;;;;2094093;28;20120;-72
2023/06/06 00:19:57;;;;;;;4.93;3.60;;;17.20;98.70;;;;;;2090857;28;20036;-72
2023/06/06 00:20:58;;;;;;;4.88;4.22;;;17.20;98.70;;;;;;2095514;28;20099;-72
2023/06/06 00:21:59;;;;;;;5.53;3.92;;;17.20;99.30;;;;;;2093719;28;20531;-73
2023/06/06 00:23:00;;;;;;;3.97;3.63;;;17.10;99.60;;;;;;2093024;28;20106;-73
2023/06/06 00:24:01;;;;;;;6.15;4.22;;;17.10;99.90;;;;;;2093103;28;20054;-72
2023/06/06 00:25:03;;;;;;;4.35;3.95;;;17.10;99.90;;;;;;2090127;28;20059;-73
2023/06/06 00:26:04;;;;;;;4.65;4.25;;;17.10;99.90;;;;;;2093943;28;20388;-73
2023/06/06 00:27:05;;;;;;;4.30;3.90;;;17.10;99.90;;;;;;2094216;28;20040;-73
2023/06/06 00:28:05;;;;;;;6.00;3.63;;;17.10;99.90;;;;;;2091666;28;20108;-72
2023/06/06 00:29:06;;;;;;;6.55;4.40;;;17.00;99.90;;;;;;2089895;28;20029;-72
2023/06/06 00:30:07;;;;;;;5.28;4.18;;;17.00;99.90;;;;;;2092444;28;20495;-73
2023/06/06 00:31:07;;;;;;;4.35;3.95;;;17.00;99.90;;;;;;2091907;28;20029;-73
2023/06/06 00:32:08;;;;;;;4.28;3.88;;;16.90;99.90;;;;;;2092487;28;20034;-73
2023/06/06 00:33:08;;;;;;;3.97;3.63;;;16.90;99.90;;;;;;2093275;28;20052;-73
2023/06/06 00:34:09;;;;;;;4.65;4.07;;;16.90;99.90;;;;;;2094606;28;20044;-72
2023/06/06 00:35:10;;;;;;;6.18;4.72;;;16.90;99.90;;;;;;2091293;28;20419;-73
2023/06/06 00:36:11;;;;;;;5.72;4.07;;;16.90;99.90;;;;;;2092617;28;20087;-72
2023/06/06 00:37:11;;;;;;;3.90;3.60;;;16.90;99.90;;;;;;2091640;28;20074;-72
2023/06/06 00:38:12;;;;;;;4.40;3.85;;;16.90;99.90;;;;;;2099669;28;20069;-73
2023/06/06 00:39:12;;;;;;;5.13;4.20;;;16.90;99.90;;;;;;2098618;28;20017;-73
2023/06/06 00:40:13;;;;;;;4.13;3.72;;;16.80;99.90;;;;;;2089723;28;20464;-73
2023/06/06 00:41:14;;;;;;;4.72;3.67;;;16.80;99.90;;;;;;2091887;28;20652;-72
2023/06/06 00:42:14;;;;;;;7.05;3.72;;;16.80;99.90;;;;;;2093415;28;20028;-73
2023/06/06 00:43:15;;;;;;;4.25;3.80;;;16.80;99.90;;;;;;2090730;28;20047;-73
2023/06/06 00:44:16;;;;;;;6.60;4.60;;;16.80;99.90;;;;;;2090487;28;20028;-72
2023/06/06 00:45:16;;;;;;;4.10;3.70;;;16.80;99.90;;;;;;2090516;28;20021;-73
2023/06/06 00:46:17;;;;;;;4.47;4.07;;;16.80;99.90;;;;;;2093629;28;20031;-72
2023/06/06 00:47:18;;;;;;;6.97;4.68;;;16.80;99.90;;;;;;2090644;28;20032;-73
2023/06/06 00:48:20;;;;;;;5.30;3.83;;;16.70;99.90;;;;;;2098173;28;20035;-73
2023/06/06 00:49:22;;;;;;;4.82;4.15;;;16.70;99.90;;;;;;2099163;28;20020;-73
2023/06/06 00:50:23;;;;;;;5.18;4.65;;;16.80;99.90;;;;;;2091836;28;20017;-73
2023/06/06 00:51:25;;;;;;;5.53;4.57;;;16.70;99.90;;;;;;2091098;28;20045;-73
2023/06/06 00:52:25;;;;;;;8.68;4.72;;;16.70;99.90;;;;;;2092810;28;20118;-73
2023/06/06 00:53:26;;;;;;;5.57;4.90;;;16.70;99.90;;;;;;2094513;28;20028;-73
2023/06/06 00:54:27;;;;;;;9.63;4.90;;;16.70;99.90;;;;;;2096973;28;20086;-73
2023/06/06 00:55:28;;;;;;;6.65;4.85;;;16.60;99.90;;;;;;2098296;28;20051;-73
2023/06/06 00:56:29;;;;;;;5.10;4.50;;;16.60;99.90;;;;;;2093012;28;20021;-73
2023/06/06 00:57:30;;;;;;;4.78;4.25;;;16.70;99.90;;;;;;2093562;28;20036;-73
2023/06/06 00:58:30;;;;;;;5.18;4.68;;;16.60;99.90;;;;;;2091493;28;20035;-72
2023/06/06 00:59:31;;;;;;;4.00;3.67;;;16.60;99.90;;;;;;2092809;28;20134;-73
2023/06/06 01:00:32;;;;;;;6.20;4.93;;;16.60;99.90;;;;;;2095754;28;20020;-72
2023/06/06 01:01:36;;;;;;;4.63;3.95;;;16.60;99.90;;;;;;2097995;28;20036;-73
2023/06/06 01:02:37;;;;;;;4.43;4.03;;;16.60;99.90;;;;;;2092035;28;20055;-73
2023/06/06 01:03:40;;;;;;;7.35;4.95;;;16.60;99.90;;;;;;2091216;28;21127;-73
2023/06/06 01:04:41;;;;;;;5.57;4.30;;;16.50;99.90;;;;;;2092361;28;20020;-73
2023/06/06 01:05:42;;;;;;;4.65;4.15;;;16.50;99.90;;;;;;2092968;28;20016;-73
2023/06/06 01:06:43;;;;;;;6.85;4.13;;;16.50;99.90;;;;;;2092206;28;20046;-73
2023/06/06 01:07:47;;;;;;;5.35;4.80;;;16.50;99.90;;;;;;2091844;28;20016;-73
2023/06/06 01:08:48;;;;;;;7.40;4.18;;;16.50;99.90;;;;;;2092035;28;20027;-73
2023/06/06 01:09:48;;;;;;;4.97;4.47;;;16.50;99.90;;;;;;2091320;28;20052;-73
2023/06/06 01:10:51;;;;;;;9.18;5.75;;;16.50;99.90;;;;;;2091887;28;20028;-73
2023/06/06 01:12:18;;;;;;;7.32;4.55;;;16.50;99.90;;;;;;2092247;28;20028;-73
2023/06/06 01:13:33;;;;;;;6.35;4.40;;;16.50;99.90;;;;;;2091717;28;20040;-72
2023/06/06 01:14:50;;;;;;;5.53;4.93;;;16.40;99.90;;;;;;2093098;28;20016;-73
2023/06/06 01:15:55;;;;;;;5.00;4.47;;;16.40;99.90;;;;;;2092918;28;20039;-72
2023/06/06 01:16:57;;;;;;;7.18;5.18;;;16.40;99.90;;;;;;2092304;28;20037;-72
2023/06/06 01:18:01;;;;;;;8.00;5.43;;;16.40;99.90;;;;;;2093321;28;20028;-72
2023/06/06 01:19:04;;;;;;;13.57;5.40;;;16.40;99.90;;;;;;2091907;28;20025;-72
2023/06/06 01:20:06;;;;;;;5.35;4.05;;;16.30;99.90;;;;;;2092972;28;20130;-72
2023/06/06 01:21:08;;;;;;;6.47;5.30;;;16.30;99.90;;;;;;2093375;28;20028;-73
2023/06/06 01:22:12;;;;;;;7.30;5.47;;;16.40;99.90;;;;;;2092557;28;20080;-73
2023/06/06 01:23:14;;;;;;;8.27;5.97;;;16.30;99.90;;;;;;2091899;28;20032;-72
2023/06/06 01:24:15;;;;;;;5.22;4.72;;;16.30;99.90;;;;;;2092515;28;20017;-72
2023/06/06 01:25:19;;;;;;;8.68;5.57;;;16.30;99.90;;;;;;2093929;28;20559;-72
2023/06/06 01:26:19;;;;;;;5.55;4.65;;;16.30;99.90;;;;;;2092417;28;20528;-73
2023/06/06 01:27:21;;;;;;;7.45;5.05;;;16.30;99.90;;;;;;2093239;28;20389;-72
2023/06/06 01:28:23;;;;;;;5.68;4.68;;;16.30;99.90;;;;;;2093888;28;20025;-73
2023/06/06 01:29:23;;;;;;;5.70;5.05;;;16.30;99.90;;;;;;2092656;28;20020;-73
2023/06/06 01:30:26;;;;;;;7.00;5.53;;;16.30;99.90;;;;;;2092342;28;20063;-73
2023/06/06 01:31:40;;;;;;;10.93;5.75;;;16.20;99.90;;;;;;2092359;28;20020;-73
2023/06/06 01:33:04;;;;;;;5.82;5.32;;;16.20;99.90;;;;;;2093437;28;20499;-73
2023/06/06 01:34:15;;;;;;;9.48;4.97;;;16.20;99.90;;;;;;2092616;28;20056;-73
2023/06/06 01:35:35;;;;;;;6.10;4.45;;;16.20;99.90;;;;;;2094392;28;20024;-73
2023/06/06 01:36:45;;;;;;;6.53;5.68;;;16.10;99.90;;;;;;2093030;28;20032;-72
2023/06/06 01:38:12;;;;;;;6.53;5.88;;;16.10;99.90;;;;;;2092464;28;20110;-73
2023/06/06 01:39:17;;;;;;;4.85;4.35;;;16.10;99.90;;;;;;2091581;28;20043;-73
2023/06/06 01:40:19;;;;;;;9.93;6.20;;;16.10;99.90;;;;;;2094076;28;20034;-72
2023/06/06 01:41:22;;;;;;;7.90;5.03;;;16.10;99.90;;;;;;2088677;28;20029;-73
2023/06/06 01:42:23;;;;;;;7.32;5.63;;;16.10;99.90;;;;;;2092729;28;20029;-72
2023/06/06 01:43:26;;;;;;;4.82;4.35;;;16.10;99.90;;;;;;2093324;28;20067;-71
2023/06/06 01:44:30;;;;;;;5.80;4.95;;;16.10;99.90;;;;;;2095391;28;20031;-71
2023/06/06 01:45:32;;;;;;;7.38;5.38;;;16.00;99.90;;;;;;2092003;28;20021;-71
2023/06/06 01:46:34;;;;;;;6.78;5.03;;;16.00;99.90;;;;;;2094238;28;20017;-72
2023/06/06 01:47:37;;;;;;;6.53;5.68;;;16.00;99.90;;;;;;2094374;28;20031;-72
2023/06/06 01:48:38;;;;;;;8.73;6.18;;;16.00;99.90;;;;;;2096552;28;20025;-72
2023/06/06 01:49:40;;;;;;;6.65;4.68;;;16.10;99.90;;;;;;2090752;28;20040;-71
2023/06/06 01:50:41;;;;;;;7.22;5.47;;;16.00;99.90;;;;;;2088015;28;20017;-71
2023/06/06 01:51:42;;;;;;;7.10;6.00;;;16.00;99.90;;;;;;2088661;28;20179;-71
2023/06/06 01:52:43;;;;;;;6.32;5.15;;;16.10;99.90;;;;;;2085091;28;20121;-71
2023/06/06 01:53:44;;;;;;;4.97;4.25;;;16.00;99.90;;;;;;2094511;28;20050;-72
2023/06/06 01:54:45;;;;;;;5.70;5.00;;;16.00;99.90;;;;;;2093659;28;20021;-72
2023/06/06 01:55:48;;;;;;;5.80;4.88;;;16.00;99.90;;;;;;2093277;28;20100;-71
2023/06/06 01:56:48;;;;;;;6.28;5.65;;;16.00;99.90;;;;;;2092998;28;20052;-71
2023/06/06 01:57:49;;;;;;;5.43;4.93;;;16.00;99.90;;;;;;2092909;28;20039;-71
2023/06/06 01:58:50;;;;;;;8.25;6.10;;;16.00;99.90;;;;;;2091185;28;20025;-72
2023/06/06 01:59:51;;;;;;;6.40;5.20;;;16.00;99.90;;;;;;2090283;28;20512;-71
2023/06/06 02:00:51;;;;;;;6.25;5.28;;;15.90;99.90;;;;;;2092704;28;20029;-71
2023/06/06 02:01:52;;;;;;;7.28;6.00;;;16.00;99.90;;;;;;2094577;28;20107;-72
2023/06/06 02:02:52;;;;;;;6.68;5.28;;;15.90;99.90;;;;;;2095811;28;20032;-71
2023/06/06 02:03:53;;;;;;;6.10;5.50;;;15.90;99.90;;;;;;2093004;28;20072;-72
2023/06/06 02:04:53;;;;;;;6.72;5.53;;;15.90;99.90;;;;;;2094840;28;20079;-71
2023/06/06 02:05:54;;;;;;;8.15;5.68;;;15.90;99.90;;;;;;2091506;28;20021;-71
2023/06/06 02:06:55;;;;;;;6.97;4.63;;;15.90;99.90;;;;;;2091664;28;20473;-71
2023/06/06 02:07:55;;;;;;;7.30;6.60;;;15.90;99.90;;;;;;2092748;28;20044;-72
2023/06/06 02:08:56;;;;;;;8.00;6.70;;;15.90;99.90;;;;;;2092286;28;20074;-72
2023/06/06 02:09:56;;;;;;;7.10;6.40;;;15.90;99.90;;;;;;2091908;28;20077;-72
2023/06/06 02:10:57;;;;;;;7.65;6.38;;;15.90;99.90;;;;;;2090410;28;20032;-71
2023/06/06 02:11:57;;;;;;;6.47;5.60;;;15.80;99.90;;;;;;2091029;28;20027;-71
2023/06/06 02:12:58;;;;;;;10.10;6.13;;;15.90;99.90;;;;;;2091993;28;20358;-72
2023/06/06 02:14:00;;;;;;;6.43;5.90;;;15.80;99.90;;;;;;2092219;28;20078;-72
2023/06/06 02:15:02;;;;;;;6.57;5.75;;;15.80;99.90;;;;;;2094488;28;20032;-71
2023/06/06 02:16:03;;;;;;;5.85;5.03;;;15.80;99.90;;;;;;2093186;28;20020;-74
2023/06/06 02:17:04;;;;;;;8.48;6.60;;;15.80;99.90;;;;;;2093422;28;20484;-73
2023/06/06 02:18:05;;;;;;;7.60;5.65;;;15.80;99.90;;;;;;2091683;28;20747;-73
2023/06/06 02:19:05;;;;;;;6.65;6.00;;;15.80;99.90;;;;;;2093836;28;20603;-73
2023/06/06 02:20:09;;;;;;;8.23;5.63;;;15.80;99.90;;;;;;2092251;28;20382;-73
2023/06/06 02:21:09;;;;;;;7.18;6.20;;;15.70;99.90;;;;;;2092925;28;20028;-72
2023/06/06 02:22:10;;;;;;;10.05;6.53;;;15.80;99.90;;;;;;2091025;28;20396;-71
2023/06/06 02:23:10;;;;;;;7.43;6.60;;;15.70;99.90;;;;;;2091584;28;20024;-71
2023/06/06 02:24:11;;;;;;;6.05;5.45;;;15.70;99.90;;;;;;2091469;28;20056;-71
2023/06/06 02:25:13;;;;;;;7.60;6.10;;;15.70;99.90;;;;;;2092424;28;20017;-71
2023/06/06 02:26:14;;;;;;;10.65;6.40;;;15.70;99.90;;;;;;2093610;28;20116;-71
2023/06/06 02:27:15;;;;;;;7.47;6.57;;;15.70;99.90;;;;;;2092700;28;20472;-71
2023/06/06 02:28:15;;;;;;;7.82;6.95;;;15.70;99.90;;;;;;2091232;28;20444;-71
2023/06/06 02:29:16;;;;;;;9.63;5.70;;;15.60;99.90;;;;;;2093308;28;20105;-71
2023/06/06 02:30:16;;;;;;;7.85;6.85;;;15.60;99.90;;;;;;2095707;28;20087;-71
2023/06/06 02:31:17;;;;;;;9.38;6.28;;;15.70;99.90;;;;;;2095443;28;20017;-71
2023/06/06 02:32:18;;;;;;;8.25;5.93;;;15.60;99.90;;;;;;2092265;28;20674;-71
2023/06/06 02:33:19;;;;;;;8.68;6.18;;;15.60;99.90;;;;;;2097320;28;20040;-71
2023/06/06 02:34:21;;;;;;;7.72;6.85;;;15.60;99.90;;;;;;2089074;28;20116;-71
2023/06/06 02:35:22;;;;;;;9.55;5.85;;;15.60;99.90;;;;;;2092915;28;20024;-71
2023/06/06 02:36:23;;;;;;;9.38;6.75;;;15.60;99.90;;;;;;2095470;28;20108;-71
2023/06/06 02:37:23;;;;;;;8.02;5.95;;;15.60;99.90;;;;;;2094816;28;20079;-71
2023/06/06 02:38:24;;;;;;;8.02;6.30;;;15.60;99.90;;;;;;2092885;28;20025;-71
2023/06/06 02:39:24;;;;;;;7.30;5.82;;;15.60;99.90;;;;;;2093673;28;20099;-71
2023/06/06 02:40:25;;;;;;;7.63;6.93;;;15.60;99.90;;;;;;2093390;28;20027;-71
2023/06/06 02:41:26;;;;;;;8.02;7.00;;;15.60;99.90;;;;;;2092892;28;20035;-71
2023/06/06 02:42:26;;;;;;;8.45;7.40;;;15.60;99.90;;;;;;2090268;28;20032;-72
2023/06/06 02:43:27;;;;;;;7.20;6.50;;;15.60;99.90;;;;;;2095251;28;20048;-72
2023/06/06 02:44:27;;;;;;;9.63;6.78;;;15.60;99.90;;;;;;2097213;28;20024;-71
2023/06/06 02:45:28;;;;;;;9.05;5.80;;;15.60;99.90;;;;;;2090661;28;20058;-71
2023/06/06 02:46:30;;;;;;;9.18;7.25;;;15.50;99.90;;;;;;2096050;28;20033;-71
2023/06/06 02:47:31;;;;;;;8.75;6.32;;;15.50;99.90;;;;;;2097069;28;20044;-71
2023/06/06 02:48:31;;;;;;;10.32;6.80;;;15.50;99.90;;;;;;2092889;28;20016;-72
2023/06/06 02:49:32;;;;;;;7.97;6.60;;;15.50;99.90;;;;;;2093246;28;20025;-71
2023/06/06 02:50:32;;;;;;;7.75;6.45;;;15.50;99.90;;;;;;2089797;28;20046;-71
2023/06/06 02:51:33;;;;;;;8.43;7.13;;;15.50;99.90;;;;;;2091861;28;20032;-71
2023/06/06 02:52:35;;;;;;;8.95;6.82;;;15.50;99.90;;;;;;2091354;28;20028;-71
2023/06/06 02:53:36;;;;;;;7.10;6.40;;;15.40;99.90;;;;;;2092850;28;20077;-71
2023/06/06 02:54:36;;;;;;;9.77;6.55;;;15.40;99.90;;;;;;2093768;28;20013;-71
2023/06/06 02:55:37;;;;;;;11.52;5.97;;;15.40;99.90;;;;;;2084875;28;20103;-71
2023/06/06 02:56:37;;;;;;;8.00;7.10;;;15.40;99.90;;;;;;2092347;28;20059;-71
2023/06/06 02:57:38;;;;;;;8.73;6.50;;;15.40;99.90;;;;;;2091778;28;20484;-71
2023/06/06 02:58:38;;;;;;;11.60;7.45;;;15.40;99.90;;;;;;2094037;28;20025;-71
2023/06/06 02:59:39;;;;;;;7.22;5.88;;;15.40;99.90;;;;;;2094892;28;20032;-71
2023/06/06 03:00:40;;;;;;;9.00;7.80;;;15.40;99.90;;;;;;2092205;28;20086;-71
2023/06/06 03:01:44;;;;;;;9.70;7.90;;;15.40;99.90;;;;;;2092877;28;20782;-71
2023/06/06 03:02:44;;;;;;;9.52;6.95;;;15.40;99.90;;;;;;2092295;28;20060;-71
2023/06/06 03:03:45;;;;;;;8.75;7.50;;;15.40;99.90;;;;;;2090083;28;20021;-71
2023/06/06 03:04:45;;;;;;;10.57;8.07;;;15.30;99.90;;;;;;2091926;28;20036;-71
2023/06/06 03:05:51;;;;;;;10.90;7.90;;;15.30;99.90;;;;;;2083898;28;20060;-71
2023/06/06 03:06:51;;;;;;;8.45;6.55;;;15.30;99.90;;;;;;2091173;28;20029;-71
2023/06/06 03:07:52;;;;;;;9.10;7.57;;;15.30;99.90;;;;;;2092368;28;20100;-71
2023/06/06 03:08:55;;;;;;;12.65;7.75;;;15.30;99.90;;;;;;2093092;28;20021;-71
2023/06/06 03:09:55;;;;;;;11.40;7.68;;;15.30;99.90;;;;;;2091019;28;20028;-72
2023/06/06 03:10:56;;;;;;;8.88;7.90;;;15.20;99.90;;;;;;2091095;28;20021;-71
2023/06/06 03:11:56;;;;;;;11.27;6.78;;;15.20;99.90;;;;;;2084185;28;20896;-71
2023/06/06 03:12:57;;;;;;;7.75;6.10;;;15.20;99.90;;;;;;2092369;28;20024;-71
2023/06/06 03:13:58;;;;;;;6.80;6.20;;;15.20;99.90;;;;;;2091663;28;20055;-72
2023/06/06 03:14:58;;;;;;;8.88;6.75;;;15.20;99.90;;;;;;2093452;28;20024;-72
2023/06/06 03:15:59;;;;;;;8.13;6.75;;;15.20;99.90;;;;;;2093090;28;20032;-72
2023/06/06 03:17:00;;;;;;;9.02;6.88;;;15.20;99.90;;;;;;2092699;28;20520;-72
2023/06/06 03:18:00;;;;;;;9.60;7.32;;;15.20;99.90;;;;;;2092793;28;20058;-72
2023/06/06 03:19:03;;;;;;;14.90;8.57;;;15.20;99.90;;;;;;2091522;28;20480;-72
2023/06/06 03:20:06;;;;;;;10.18;7.13;;;15.20;99.90;;;;;;2091767;28;20020;-72
2023/06/06 03:21:07;;;;;;;12.00;8.18;;;15.20;99.90;;;;;;2091308;28;20491;-72
2023/06/06 03:22:08;;;;;;;10.50;7.22;;;15.10;99.90;;;;;;2092214;28;20382;-72
2023/06/06 03:23:11;;;;;;;7.93;6.78;;;15.10;99.90;;;;;;2092277;28;20021;-72
2023/06/06 03:24:13;;;;;;;7.70;6.43;;;15.10;99.90;;;;;;2092414;28;20056;-72
2023/06/06 03:25:15;;;;;;;8.73;7.85;;;15.10;99.90;;;;;;2088186;28;20046;-72
2023/06/06 03:26:16;;;;;;;7.13;5.75;;;15.10;99.90;;;;;;2094886;28;20050;-72
2023/06/06 03:27:16;;;;;;;9.65;6.68;;;15.10;99.90;;;;;;2090382;28;20021;-72
2023/06/06 03:28:18;;;;;;;9.75;7.30;;;15.10;99.90;;;;;;2085765;28;20019;-72
2023/06/06 03:29:19;;;;;;;9.70;7.70;;;15.10;99.90;;;;;;2091778;28;20051;-72
2023/06/06 03:30:19;;;;;;;7.05;6.35;;;15.10;99.90;;;;;;2090792;28;20103;-72
2023/06/06 03:31:23;;;;;;;9.63;7.28;;;15.10;99.90;;;;;;2092568;28;20029;-72
2023/06/06 03:32:25;;;;;;;9.55;7.22;;;15.10;99.90;;;;;;2092592;28;20040;-72
2023/06/06 03:33:25;;;;;;;10.48;8.10;;;15.10;99.90;;;;;;2092558;28;20048;-71
2023/06/06 03:34:26;;;;;;;8.75;7.05;;;15.10;99.90;;;;;;2093016;28;20028;-72
2023/06/06 03:35:28;;;;;;;8.70;7.80;;;15.10;99.90;;;;;;2091656;28;20968;-72
2023/06/06 03:36:32;;;;;;;9.23;6.97;;;15.10;99.90;;;;;;2084367;28;20021;-72
2023/06/06 03:37:33;;;;;;;12.20;7.82;;;15.10;99.90;;;;;;2094664;28;20073;-72
2023/06/06 03:38:33;;;;;;;8.25;6.50;;;15.10;99.90;;;;;;2092194;28;20017;-72
2023/06/06 03:39:34;;;;;;;7.35;6.00;;;15.10;99.90;;;;;;2092476;28;20385;-72
2023/06/06 03:40:34;;;;;;;9.18;6.78;;;15.10;99.90;;;;;;2092990;28;20027;-72
2023/06/06 03:41:35;;;;;;;7.90;7.10;;;15.10;99.90;;;;;;2090943;28;20032;-72
2023/06/06 03:42:35;;;;;;;9.77;6.90;;;15.10;99.90;;;;;;2090214;28;20064;-72
2023/06/06 03:43:36;;;;;;;8.48;6.72;;;15.00;99.90;;;;;;2090694;28;20096;-72
2023/06/06 03:44:36;;;;;;;8.95;7.28;;;15.10;99.90;;;;;;2099571;28;20057;-72
2023/06/06 03:45:37;;;;;;;9.10;6.38;;;15.10;99.90;;;;;;2096601;28;20054;-72
2023/06/06 03:46:37;;;;;;;9.50;7.45;;;15.10;99.90;;;;;;2093053;28;20047;-72
2023/06/06 03:47:38;;;;;;;9.93;6.78;;;15.10;99.90;;;;;;2093624;28;20031;-72
2023/06/06 03:48:38;;;;;;;9.30;6.70;;;15.10;99.90;;;;;;2091332;28;20075;-72
2023/06/06 03:49:39;;;;;;;7.65;6.85;;;15.00;99.90;;;;;;2091224;28;20013;-72
2023/06/06 03:50:40;;;;;;;7.70;6.70;;;15.10;99.90;;;;;;2092490;28;20052;-72
2023/06/06 03:51:41;;;;;;;8.05;6.75;;;15.00;99.90;;;;;;2092054;28;20059;-72
2023/06/06 03:52:41;;;;;;;8.20;6.55;;;15.00;99.90;;;;;;2087559;28;20830;-72
2023/06/06 03:53:42;;;;;;;9.73;7.70;;;15.00;99.90;;;;;;2094221;28;20028;-72
2023/06/06 03:54:43;;;;;;;10.13;6.95;;;15.10;99.90;;;;;;2094386;28;20025;-72
2023/06/06 03:55:47;;;;;;;9.48;6.93;;;15.00;99.90;;;;;;2095734;28;20125;-72
2023/06/06 03:56:48;;;;;;;8.32;6.53;;;15.00;99.90;;;;;;2092372;28;20025;-72
2023/06/06 03:57:48;;;;;;;11.18;7.18;;;15.00;99.90;;;;;;2089981;28;21034;-72
2023/06/06 03:58:49;;;;;;;7.97;7.18;;;15.10;99.90;;;;;;2089238;28;20078;-72
2023/06/06 03:59:50;;;;;;;12.63;7.72;;;15.10;99.90;;;;;;2089974;28;20139;-72
2023/06/06 04:00:51;;;;;;;13.75;7.90;;;15.10;99.90;;;;;;2091912;28;20025;-72
2023/06/06 04:01:53;;;;;;;9.02;7.70;;;15.10;99.90;;;;;;2090188;28;20029;-72
2023/06/06 04:02:53;;;;;;;9.65;8.23;;;15.20;99.90;;;;;;2091223;28;20025;-72
2023/06/06 04:03:54;;;;;;;9.15;8.07;;;15.20;99.90;;;;;;2093261;28;20012;-72
2023/06/06 04:04:54;;;;;;;11.82;7.30;;;15.30;99.90;;;;;;2095347;28;20024;-72
2023/06/06 04:05:55;;;;;;;7.90;7.10;;;15.30;99.90;;;;;;2094135;28;20116;-72
2023/06/06 04:06:56;;;;;;;12.70;8.10;;;15.40;99.90;;;;;;2092482;28;20369;-72
2023/06/06 04:07:57;;;;;;;9.02;6.97;;;15.40;99.90;;;;;;2092800;28;20074;-72
2023/06/06 04:08:58;;;;;;;14.80;7.03;;;15.50;99.90;;;;;;2091519;28;20025;-72
2023/06/06 04:09:59;;;;;;;10.18;8.25;;;15.60;99.90;;;;;;2091311;28;20082;-72
2023/06/06 04:10:59;;;;;;;10.88;7.90;;;15.70;99.90;;;;;;2093352;28;20397;-72
2023/06/06 04:12:00;;;;;;;10.05;8.50;;;15.70;99.90;;;;;;2090677;28;21623;-72
2023/06/06 04:13:01;;;;;;;8.43;7.47;;;15.90;99.90;;;;;;2093065;28;20089;-72
2023/06/06 04:14:02;;;;;;;9.40;7.50;;;16.00;99.90;;;;;;2093110;28;20032;-72
2023/06/06 04:15:03;;;;;;;7.53;6.70;;;16.10;99.90;;;;;;2093175;28;20099;-72
2023/06/06 04:16:05;;;;;;;9.45;7.63;;;16.20;99.90;;;;;;2090183;28;20484;-72
2023/06/06 04:17:07;;;;;;;8.82;6.82;;;16.30;99.90;;;;;;2091294;28;20032;-72
2023/06/06 04:18:07;;;;;;;8.50;6.45;;;16.50;99.90;;;;;;2090774;28;20439;-72
2023/06/06 04:19:08;;;;;;;12.73;8.23;;;16.60;99.90;;;;;;2091401;28;20021;-72
2023/06/06 04:20:09;;;;;;;11.32;8.85;;;16.70;99.90;;;;;;2094517;28;20087;-72
2023/06/06 04:21:09;;;;;;;8.60;7.65;;;16.80;99.90;;;;;;2095722;28;20028;-73
2023/06/06 04:22:10;;;;;;;12.43;8.02;;;17.00;99.90;;;;;;2090854;28;20028;-72
2023/06/06 04:23:11;;;;;;;9.40;8.15;;;17.00;99.90;;;;;;2089751;28;20575;-72
2023/06/06 04:24:11;;;;;;;9.68;7.25;;;17.20;99.90;;;;;;2092605;28;20060;-72
2023/06/06 04:25:15;;;;;;;7.78;7.03;;;17.30;99.90;;;;;;2093061;28;20478;-72
2023/06/06 04:26:26;;;;;;;13.60;8.18;;;17.40;99.90;;;;;;2090849;28;20017;-72
2023/06/06 04:27:28;;;;;;;9.15;7.65;;;17.40;99.90;;;;;;2093946;28;20112;-72
2023/06/06 04:28:31;;;;;;;9.80;7.80;;;17.40;99.90;;;;;;2094541;28;20017;-72
2023/06/06 04:29:35;;;;;;;9.43;6.75;;;17.40;99.90;;;;;;2089356;28;20617;-72
2023/06/06 04:30:36;;;;;;;12.63;7.88;;;17.40;99.90;;;;;;2090942;28;20029;-72
2023/06/06 04:31:40;;;;;;;10.50;7.95;;;17.30;99.90;;;;;;2095633;28;20020;-73
2023/06/06 04:32:41;;;;;;;9.60;7.30;;;17.30;99.90;;;;;;2093886;28;20028;-73
2023/06/06 04:33:42;;;;;;;9.77;7.55;;;17.20;99.90;;;;;;2094539;28;20039;-72
2023/06/06 04:34:45;;;;;;;9.35;7.75;;;17.20;99.90;;;;;;2093083;28;20025;-72
2023/06/06 04:35:46;;;;;;;8.43;6.82;;;17.20;99.90;;;;;;2093922;28;20538;-72
2023/06/06 04:36:47;;;;;;;7.80;7.00;;;17.10;99.90;;;;;;2096398;28;20139;-72
2023/06/06 04:37:47;;;;;;;9.65;7.72;;;17.10;99.90;;;;;;2094925;28;20032;-72
2023/06/06 04:38:49;;;;;;;8.93;7.28;;;17.10;99.90;;;;;;2090862;28;20082;-72
2023/06/06 04:39:53;;;;;;;8.80;6.82;;;17.10;99.90;;;;;;2093054;28;20032;-72
2023/06/06 04:40:53;;;;;;;9.43;8.02;;;17.10;99.90;;;;;;2094994;28;20031;-72
2023/06/06 04:41:56;;;;;;;8.43;7.40;;;17.10;99.90;;;;;;2091923;28;20104;-72
2023/06/06 04:42:58;;;;;;;8.18;7.25;;;17.10;99.90;;;;;;2092267;28;20029;-72
2023/06/06 04:44:01;;;;;;;8.15;7.20;;;17.10;99.90;;;;;;2093145;28;20051;-73
2023/06/06 04:45:03;;;;;;;9.48;7.55;;;17.10;99.90;;;;;;2093015;28;20120;-73
2023/06/06 04:46:04;;;;;;;8.70;7.30;;;17.10;99.90;;;;;;2092876;28;20346;-73
2023/06/06 04:47:05;;;;;;;9.10;7.63;;;17.10;99.90;;;;;;2092335;28;20175;-73
2023/06/06 04:48:05;;;;;;;9.40;7.07;;;17.10;99.90;;;;;;2091568;28;20055;-73
2023/06/06 04:49:06;;;;;;;9.52;7.25;;;17.10;99.90;;;;;;2092702;28;20039;-73
2023/06/06 04:50:08;;;;;;;9.25;7.60;;;17.10;99.90;;;;;;2091988;28;20028;-73
2023/06/06 04:51:09;;;;;;;10.43;7.75;;;17.10;99.90;;;;;;2092550;28;20121;-73
2023/06/06 04:52:12;;;;;;;9.15;7.57;;;17.10;99.90;;;;;;2091293;28;20024;-73
2023/06/06 04:53:13;;;;;;;11.00;7.90;;;17.10;99.90;;;;;;2091065;28;20025;-73
2023/06/06 04:54:13;;;;;;;9.02;7.70;;;17.10;99.90;;;;;;2092771;28;20059;-72
2023/06/06 04:55:15;;;;;;;9.27;7.65;;;17.10;99.90;;;;;;2091798;28;20051;-73
2023/06/06 04:56:16;;;;;;;9.98;7.80;;;17.20;99.90;;;;;;2092617;28;20024;-73
2023/06/06 04:57:17;;;;;;;9.80;7.43;;;17.20;99.90;;;;;;2093944;28;20036;-73
2023/06/06 04:58:19;;;;;;;9.38;7.53;;;17.20;99.90;;;;;;2091609;28;20110;-73
2023/06/06 04:59:22;;;;;;;10.82;8.00;;;17.20;99.90;;;;;;2093250;28;20028;-72
2023/06/06 05:00:23;;;;;;;8.95;7.65;;;17.20;99.90;;;;;;2091615;28;20790;-73
2023/06/06 05:01:24;;;;;;;9.88;7.72;;;17.30;99.90;;;;;;2092472;28;20060;-72
2023/06/06 05:02:28;;;;;;;8.20;7.35;;;17.30;99.90;;;;;;2091276;28;20032;-72
2023/06/06 05:03:29;;;;;;;8.88;7.97;;;17.40;99.90;;;;;;2091407;28;20012;-72
2023/06/06 05:04:31;;;;;;;9.75;8.45;;;17.40;99.90;;;;;;2091673;28;20024;-73
2023/06/06 05:05:31;;;;;;;10.10;7.50;;;17.40;99.90;;;;;;2092883;28;20134;-72
2023/06/06 05:06:33;;;;;;;9.82;8.13;;;17.40;99.90;;;;;;2092018;28;20050;-73
2023/06/06 05:07:34;;;;;;;8.80;7.88;;;17.40;99.90;;;;;;2093803;28;20103;-72
2023/06/06 05:08:41;;;;;;;10.93;8.38;;;17.50;99.90;;;;;;2092853;28;20098;-73
2023/06/06 05:09:41;;;;;;;12.02;8.18;;;17.50;99.90;;;;;;2092374;28;20017;-73
2023/06/06 05:10:42;;;;;;;9.25;8.23;;;17.50;99.90;;;;;;2091025;28;20055;-73
2023/06/06 05:11:48;;;;;;;11.93;8.82;;;17.50;99.90;;;;;;2093723;28;20051;-73
2023/06/06 05:12:49;;;;;;;10.95;8.75;;;17.50;99.90;;;;;;2092907;28;20020;-73
2023/06/06 05:13:49;;;;;;;9.20;8.27;;;17.50;99.90;;;;;;2091985;28;20036;-73
2023/06/06 05:14:50;;;;;;;11.82;9.20;;;17.50;99.90;;;;;;2093891;28;20794;-73
2023/06/06 05:15:51;;;;;;;10.55;8.07;;;17.50;99.90;;;;;;2093125;28;20920;-73
2023/06/06 05:16:53;;;;;;;9.93;8.25;;;17.50;99.90;;;;;;2094488;28;20040;-73
2023/06/06 05:17:55;;;;;;;8.95;7.78;;;17.60;99.90;;;;;;2083727;28;20028;-73
2023/06/06 05:18:56;;;;;;;10.50;9.10;;;17.60;99.90;;;;;;2093679;28;20074;-73
2023/06/06 05:19:56;;;;;;;9.77;8.48;;;17.60;99.90;;;;;;2097286;28;20023;-73
2023/06/06 05:21:02;;;;;;;9.93;8.93;;;17.60;99.90;;;;;;2099642;28;20043;-73